Time;durP1;ratioP1;P1;durP2;ratioP2;P2;SDS_P1;SDS_P2;PMS_P1;PMS_P2;Temp;Humidity;BMP_temperature;BMP_pressure;BME280_temperature;BME280_humidity;BME280_pressure;Samples;Min_cycle;Max_cycle;Signal;HPM_P1;HPM_P2
2023/08/31 00:02:11;;;;;;;3.10;2.60;;;11.20;99.90;;;;;;5140713;28;20051;-80
2023/08/31 00:04:37;;;;;;;3.22;2.70;;;11.30;99.90;;;;;;5134626;28;20047;-81
2023/08/31 00:07:03;;;;;;;4.07;2.42;;;11.20;99.90;;;;;;5133627;28;20048;-81
2023/08/31 00:09:31;;;;;;;3.35;2.58;;;11.20;99.90;;;;;;5133607;28;20043;-81
2023/08/31 00:11:57;;;;;;;3.92;2.67;;;11.20;99.90;;;;;;5115564;28;20536;-81
2023/08/31 00:14:24;;;;;;;3.05;2.55;;;11.20;99.90;;;;;;5133800;28;20126;-81
2023/08/31 00:16:50;;;;;;;7.50;3.60;;;11.20;99.90;;;;;;5133504;28;20047;-81
2023/08/31 00:19:16;;;;;;;5.20;2.70;;;11.20;99.90;;;;;;5133402;28;20103;-81
2023/08/31 00:21:42;;;;;;;6.00;3.20;;;11.20;99.90;;;;;;5133334;28;20043;-81
2023/08/31 00:24:09;;;;;;;4.65;3.08;;;11.20;99.90;;;;;;5133131;28;20082;-81
2023/08/31 00:26:39;;;;;;;3.00;2.53;;;11.30;99.90;;;;;;5133196;28;20529;-81
2023/08/31 00:29:05;;;;;;;5.85;3.10;;;11.30;99.90;;;;;;5133317;28;20055;-81
2023/08/31 00:31:30;;;;;;;5.88;3.20;;;11.30;99.90;;;;;;5132964;28;20105;-81
2023/08/31 00:33:56;;;;;;;3.28;2.30;;;11.30;99.90;;;;;;5133094;28;20054;-79
2023/08/31 00:36:22;;;;;;;5.50;3.00;;;11.30;99.90;;;;;;5133104;28;20039;-78
2023/08/31 00:38:49;;;;;;;4.40;2.28;;;11.40;99.90;;;;;;5099701;27;20489;-79
2023/08/31 00:41:14;;;;;;;4.15;3.00;;;11.40;99.90;;;;;;5119065;27;20043;-80
2023/08/31 00:43:40;;;;;;;2.35;2.15;;;11.40;99.90;;;;;;5137150;27;20046;-78
2023/08/31 00:46:06;;;;;;;3.55;2.60;;;11.40;99.90;;;;;;5118791;27;20054;-79
2023/08/31 00:48:32;;;;;;;3.53;2.85;;;11.40;99.90;;;;;;5118860;27;20055;-80
2023/08/31 00:50:58;;;;;;;4.45;2.97;;;11.40;99.90;;;;;;5118173;27;20462;-79
2023/08/31 00:53:25;;;;;;;4.82;2.63;;;11.30;99.90;;;;;;5118522;27;20122;-79
2023/08/31 00:55:51;;;;;;;3.15;2.22;;;11.30;99.90;;;;;;5136556;27;20089;-79
2023/08/31 00:58:16;;;;;;;4.35;2.42;;;11.30;99.90;;;;;;5136352;27;20039;-80
2023/08/31 01:01:03;;;;;;;4.70;2.17;;;11.30;99.90;;;;;;5136921;27;20094;-79
2023/08/31 01:04:06;;;;;;;7.70;2.05;;;11.30;99.90;;;;;;5136267;27;20047;-79
2023/08/31 01:06:44;;;;;;;3.65;2.05;;;11.30;99.90;;;;;;5117994;27;20052;-80
2023/08/31 01:09:10;;;;;;;3.97;2.30;;;11.20;99.90;;;;;;5117615;27;20082;-79
2023/08/31 01:11:59;;;;;;;2.03;1.85;;;11.20;99.90;;;;;;5135742;27;20046;-79
2023/08/31 01:14:30;;;;;;;5.10;1.85;;;11.50;99.90;;;;;;5101337;27;20043;-82
2023/08/31 01:16:59;;;;;;;3.50;2.22;;;11.20;99.90;;;;;;5136619;27;20059;-79
2023/08/31 01:19:36;;;;;;;4.55;2.00;;;11.10;99.90;;;;;;5135756;27;20047;-79
2023/08/31 01:22:07;;;;;;;2.60;2.25;;;11.00;99.90;;;;;;5136498;27;20074;-79
2023/08/31 01:24:33;;;;;;;5.57;2.08;;;11.00;99.90;;;;;;5136402;27;20035;-79
2023/08/31 01:26:59;;;;;;;2.25;1.70;;;10.90;99.90;;;;;;5113597;28;20487;-79
2023/08/31 01:29:25;;;;;;;3.80;2.50;;;11.00;99.90;;;;;;5115192;28;20047;-79
2023/08/31 01:31:51;;;;;;;3.83;2.00;;;10.90;99.90;;;;;;5115099;27;20043;-78
2023/08/31 01:34:16;;;;;;;5.38;2.25;;;10.90;99.90;;;;;;5114361;28;20452;-79
2023/08/31 01:36:47;;;;;;;3.70;2.03;;;10.80;99.90;;;;;;5114767;28;20115;-79
2023/08/31 01:39:17;;;;;;;4.85;2.10;;;10.80;99.90;;;;;;5114428;28;20052;-78
2023/08/31 01:41:48;;;;;;;5.65;2.30;;;10.70;99.90;;;;;;5114855;28;20050;-78
2023/08/31 01:44:17;;;;;;;3.35;2.10;;;10.70;99.90;;;;;;5115324;28;20051;-78
2023/08/31 01:46:46;;;;;;;3.05;1.75;;;10.70;99.90;;;;;;5114721;28;20069;-78
2023/08/31 01:49:12;;;;;;;2.58;1.38;;;10.70;99.90;;;;;;5113424;28;20126;-78
2023/08/31 01:51:38;;;;;;;2.42;1.70;;;10.70;99.90;;;;;;5096795;28;20047;-79
2023/08/31 01:54:04;;;;;;;6.32;2.45;;;10.60;99.90;;;;;;5115109;28;20046;-79
2023/08/31 01:56:29;;;;;;;3.25;1.90;;;10.60;99.90;;;;;;5114566;28;20051;-78
2023/08/31 01:58:55;;;;;;;2.42;1.98;;;10.60;99.90;;;;;;5114387;28;20047;-79
2023/08/31 02:01:20;;;;;;;3.75;2.13;;;10.50;99.90;;;;;;5114172;28;20069;-79
2023/08/31 02:03:46;;;;;;;2.40;1.48;;;10.50;99.90;;;;;;5114151;28;20130;-78
2023/08/31 02:06:12;;;;;;;3.13;2.40;;;10.60;99.90;;;;;;5113465;28;20105;-78
2023/08/31 02:08:38;;;;;;;2.00;1.80;;;10.50;99.90;;;;;;5113039;28;20338;-78
2023/08/31 02:11:04;;;;;;;2.38;2.10;;;10.50;99.90;;;;;;5114547;28;20133;-78
2023/08/31 02:13:30;;;;;;;3.92;2.35;;;10.50;99.90;;;;;;5112832;28;20051;-78
2023/08/31 02:15:56;;;;;;;2.00;1.80;;;10.40;99.90;;;;;;5114678;28;20039;-78
2023/08/31 02:18:22;;;;;;;4.22;2.05;;;10.40;99.90;;;;;;5113253;28;20539;-77
2023/08/31 02:20:48;;;;;;;2.30;2.10;;;10.40;99.90;;;;;;5114404;27;20055;-79
2023/08/31 02:23:13;;;;;;;4.72;2.33;;;10.30;99.90;;;;;;5113865;28;20044;-79
2023/08/31 02:25:39;;;;;;;2.15;1.80;;;10.30;99.90;;;;;;5096053;27;20052;-79
2023/08/31 02:28:05;;;;;;;4.47;2.25;;;10.30;99.90;;;;;;5116573;27;20042;-79
2023/08/31 02:30:31;;;;;;;3.40;2.08;;;10.20;99.90;;;;;;5134725;27;20046;-78
2023/08/31 02:32:56;;;;;;;2.60;1.70;;;10.20;99.90;;;;;;5134436;27;20104;-80
2023/08/31 02:35:22;;;;;;;2.85;1.73;;;10.20;99.90;;;;;;5115697;27;20051;-79
2023/08/31 02:37:48;;;;;;;5.05;1.70;;;10.20;99.90;;;;;;5134099;27;20464;-80
2023/08/31 02:40:15;;;;;;;2.50;2.03;;;10.20;99.90;;;;;;5134174;27;20042;-79
2023/08/31 02:42:41;;;;;;;2.05;1.70;;;10.20;99.90;;;;;;5134047;27;20047;-78
2023/08/31 02:45:07;;;;;;;3.92;2.35;;;9.90;99.90;;;;;;5134055;27;20045;-79
2023/08/31 02:47:32;;;;;;;1.70;1.60;;;10.20;99.90;;;;;;5134007;27;20078;-82
2023/08/31 02:49:59;;;;;;;3.40;1.92;;;10.20;99.90;;;;;;5116427;27;20110;-79
2023/08/31 02:52:25;;;;;;;1.80;1.70;;;10.20;99.90;;;;;;5134321;27;20070;-79
2023/08/31 02:54:51;;;;;;;2.08;1.60;;;10.20;99.90;;;;;;5115879;27;20118;-79
2023/08/31 02:57:19;;;;;;;5.35;2.00;;;10.20;99.90;;;;;;5134427;27;20085;-79
2023/08/31 02:59:46;;;;;;;6.40;2.15;;;10.20;99.90;;;;;;5133899;27;20123;-80
2023/08/31 03:02:12;;;;;;;3.20;1.75;;;10.10;99.90;;;;;;5133157;27;20092;-79
2023/08/31 03:04:37;;;;;;;2.78;1.92;;;10.20;99.90;;;;;;5133795;27;20043;-80
2023/08/31 03:07:06;;;;;;;3.33;2.20;;;10.10;99.90;;;;;;5134189;27;20043;-80
2023/08/31 03:09:31;;;;;;;2.15;1.95;;;10.10;99.90;;;;;;5115460;28;20047;-79
2023/08/31 03:11:57;;;;;;;3.90;2.50;;;10.10;99.90;;;;;;5133619;27;20046;-78
2023/08/31 03:14:23;;;;;;;2.05;1.90;;;10.10;99.90;;;;;;5115521;27;20054;-78
2023/08/31 03:16:48;;;;;;;2.97;2.20;;;10.20;99.90;;;;;;5116465;28;20055;-78
2023/08/31 03:19:14;;;;;;;2.30;2.10;;;10.20;99.90;;;;;;5134993;27;20119;-78
2023/08/31 03:21:40;;;;;;;2.38;2.17;;;10.20;99.90;;;;;;5133884;27;20038;-77
2023/08/31 03:24:06;;;;;;;3.60;2.20;;;10.10;99.90;;;;;;5133630;27;20043;-78
2023/08/31 03:26:32;;;;;;;5.40;2.78;;;10.10;99.90;;;;;;5115643;27;20106;-78
2023/08/31 03:28:57;;;;;;;3.45;2.67;;;10.10;99.90;;;;;;5138964;27;20360;-78
2023/08/31 03:31:23;;;;;;;2.60;2.13;;;10.10;99.90;;;;;;5103967;28;20043;-78
2023/08/31 03:33:50;;;;;;;3.33;2.63;;;10.20;99.90;;;;;;5138163;28;20513;-79
2023/08/31 03:36:16;;;;;;;3.63;2.40;;;10.20;99.90;;;;;;5137180;28;20063;-79
2023/08/31 03:38:42;;;;;;;5.03;2.75;;;10.20;99.90;;;;;;5134043;28;20054;-79
2023/08/31 03:41:07;;;;;;;4.70;3.08;;;10.20;99.90;;;;;;5116277;28;20047;-79
2023/08/31 03:43:33;;;;;;;4.40;3.25;;;10.20;99.90;;;;;;5134019;28;20047;-78
2023/08/31 03:46:00;;;;;;;3.38;2.88;;;10.30;99.90;;;;;;5134010;28;20425;-79
2023/08/31 03:48:26;;;;;;;4.05;3.17;;;10.30;99.90;;;;;;5134071;28;20040;-79
2023/08/31 03:50:52;;;;;;;4.75;3.28;;;10.40;99.90;;;;;;5134114;28;20053;-79
2023/08/31 03:53:18;;;;;;;3.85;3.03;;;10.40;99.90;;;;;;5134235;28;20051;-79
2023/08/31 03:55:44;;;;;;;3.97;3.30;;;10.50;99.90;;;;;;5133568;28;20575;-79
2023/08/31 03:58:10;;;;;;;5.00;3.38;;;10.50;99.90;;;;;;5115309;28;20039;-79
2023/08/31 04:00:37;;;;;;;6.10;3.47;;;10.60;99.90;;;;;;5115406;28;20122;-78
2023/08/31 04:03:04;;;;;;;5.25;3.50;;;10.70;99.90;;;;;;5133670;28;20058;-79
2023/08/31 04:05:33;;;;;;;7.07;3.60;;;10.70;99.90;;;;;;5115312;28;20071;-78
2023/08/31 04:08:00;;;;;;;5.68;3.33;;;10.80;99.90;;;;;;5115208;28;20078;-79
2023/08/31 04:10:26;;;;;;;5.40;3.88;;;10.80;99.90;;;;;;5133217;28;20043;-79
2023/08/31 04:12:52;;;;;;;6.25;3.08;;;10.80;99.90;;;;;;5133290;27;20051;-79
2023/08/31 04:15:17;;;;;;;5.15;3.25;;;10.80;99.90;;;;;;5137066;27;20096;-79
2023/08/31 04:17:44;;;;;;;5.85;3.58;;;10.80;99.90;;;;;;5137529;27;20486;-79
2023/08/31 04:20:10;;;;;;;8.23;3.90;;;10.70;99.90;;;;;;5137185;27;20039;-79
2023/08/31 04:22:36;;;;;;;4.80;3.33;;;10.70;99.90;;;;;;5137612;27;20122;-79
2023/08/31 04:25:02;;;;;;;3.45;3.15;;;10.70;99.90;;;;;;5136839;27;20480;-78
2023/08/31 04:27:30;;;;;;;3.90;3.38;;;10.70;99.90;;;;;;5118864;27;20456;-79
2023/08/31 04:29:57;;;;;;;3.85;2.97;;;10.70;99.90;;;;;;5118687;27;20462;-79
2023/08/31 04:32:23;;;;;;;5.13;3.78;;;10.70;99.90;;;;;;5136747;27;20043;-79
2023/08/31 04:34:48;;;;;;;5.00;4.50;;;10.70;99.90;;;;;;5118714;27;20058;-79
2023/08/31 04:37:14;;;;;;;6.50;4.07;;;10.70;99.90;;;;;;5137062;27;20058;-79
2023/08/31 04:39:40;;;;;;;4.78;4.28;;;10.60;99.90;;;;;;5118583;27;20044;-79
2023/08/31 04:42:05;;;;;;;5.05;4.65;;;10.60;99.90;;;;;;5118421;27;20407;-79
2023/08/31 04:44:31;;;;;;;4.72;4.25;;;10.60;99.90;;;;;;5101019;27;20047;-78
2023/08/31 04:46:57;;;;;;;5.78;5.22;;;10.60;99.90;;;;;;5136314;27;20043;-79
2023/08/31 04:49:23;;;;;;;6.50;5.90;;;10.70;99.90;;;;;;5136324;27;20089;-79
2023/08/31 04:51:48;;;;;;;5.43;4.93;;;10.70;99.90;;;;;;5136475;27;20047;-79
2023/08/31 04:54:14;;;;;;;5.65;5.05;;;10.60;99.90;;;;;;5136677;27;20043;-79
2023/08/31 04:56:40;;;;;;;5.63;4.57;;;10.70;99.90;;;;;;5136368;27;20051;-79
2023/08/31 04:59:06;;;;;;;7.25;5.55;;;10.60;99.90;;;;;;5136181;27;20047;-79
2023/08/31 05:01:32;;;;;;;7.63;5.90;;;10.70;99.90;;;;;;5136672;27;20379;-79
2023/08/31 05:03:58;;;;;;;6.88;6.22;;;10.60;99.90;;;;;;5101187;27;20043;-78
2023/08/31 05:06:24;;;;;;;7.97;6.45;;;10.60;99.90;;;;;;5136032;27;20051;-79
2023/08/31 05:08:50;;;;;;;7.18;6.47;;;10.60;99.90;;;;;;5117595;27;20050;-79
2023/08/31 05:11:16;;;;;;;8.07;7.32;;;10.60;99.90;;;;;;5136605;27;20042;-80
2023/08/31 05:13:44;;;;;;;9.10;7.85;;;10.60;99.90;;;;;;5118087;27;20043;-79
2023/08/31 05:16:10;;;;;;;11.68;9.30;;;10.70;99.90;;;;;;5135891;27;20050;-79
2023/08/31 05:18:36;;;;;;;9.45;8.45;;;10.70;99.90;;;;;;5135963;27;20079;-79
2023/08/31 05:21:03;;;;;;;8.68;7.88;;;10.80;99.90;;;;;;5135906;27;20074;-79
2023/08/31 05:23:29;;;;;;;9.38;8.48;;;10.80;99.90;;;;;;5136192;27;20387;-77
2023/08/31 05:25:56;;;;;;;9.65;8.15;;;10.80;99.90;;;;;;5135692;27;20051;-77
2023/08/31 05:28:22;;;;;;;8.52;7.50;;;10.80;99.90;;;;;;5100836;27;20043;-78
2023/08/31 05:30:51;;;;;;;9.07;8.13;;;10.90;99.90;;;;;;5117445;27;20043;-77
2023/08/31 05:33:17;;;;;;;11.13;9.35;;;10.90;99.90;;;;;;5135922;27;20481;-76
2023/08/31 05:35:43;;;;;;;9.50;8.55;;;11.00;99.90;;;;;;5135613;27;20132;-77
2023/08/31 05:38:09;;;;;;;10.55;8.18;;;11.10;99.90;;;;;;5135582;27;20031;-77
2023/08/31 05:40:35;;;;;;;8.98;8.15;;;11.10;99.90;;;;;;5135898;27;20058;-77
2023/08/31 05:43:01;;;;;;;8.90;8.10;;;11.20;99.90;;;;;;5117147;27;20043;-77
2023/08/31 05:45:27;;;;;;;9.85;7.60;;;11.30;99.90;;;;;;5135668;27;20047;-78
2023/08/31 05:47:53;;;;;;;10.80;7.78;;;11.20;99.90;;;;;;5116862;27;20100;-77
2023/08/31 05:50:18;;;;;;;14.02;8.48;;;11.30;99.90;;;;;;5135138;27;20039;-77
2023/08/31 05:52:44;;;;;;;9.38;7.47;;;11.30;99.90;;;;;;5135215;27;20052;-77
2023/08/31 05:55:10;;;;;;;9.43;7.95;;;11.40;99.90;;;;;;5117193;27;20481;-77
2023/08/31 05:57:37;;;;;;;9.82;7.97;;;11.40;99.90;;;;;;5135150;27;20039;-77
2023/08/31 06:00:04;;;;;;;7.45;6.75;;;11.60;99.90;;;;;;5135313;27;20476;-77
2023/08/31 06:02:30;;;;;;;10.70;8.23;;;11.60;99.90;;;;;;5134721;27;20061;-79
2023/08/31 06:04:56;;;;;;;11.15;7.63;;;11.70;99.90;;;;;;5117386;27;20054;-79
2023/08/31 06:07:22;;;;;;;7.93;6.65;;;11.70;99.90;;;;;;5116536;27;20491;-79
2023/08/31 06:09:48;;;;;;;8.13;6.03;;;11.80;99.90;;;;;;5116296;27;20127;-78
2023/08/31 06:12:14;;;;;;;8.48;7.13;;;11.90;99.90;;;;;;5134652;27;20038;-77
2023/08/31 06:14:39;;;;;;;9.13;6.57;;;11.90;99.90;;;;;;5099535;27;20452;-81
2023/08/31 06:17:05;;;;;;;7.88;6.13;;;12.00;99.90;;;;;;5134696;27;20035;-82
2023/08/31 06:19:31;;;;;;;9.95;6.47;;;12.10;99.90;;;;;;5135076;27;20043;-80
2023/08/31 06:21:56;;;;;;;8.57;6.60;;;12.20;99.90;;;;;;5116992;27;20368;-80
2023/08/31 06:24:22;;;;;;;11.65;5.68;;;12.20;99.90;;;;;;5134470;27;20046;-80
2023/08/31 06:26:48;;;;;;;7.43;6.68;;;12.30;99.90;;;;;;5112321;28;20597;-77
2023/08/31 06:29:14;;;;;;;7.45;5.53;;;12.40;99.90;;;;;;5113886;28;20051;-84
2023/08/31 06:31:40;;;;;;;9.73;5.78;;;12.50;99.90;;;;;;5113031;28;20396;-80
2023/08/31 06:34:05;;;;;;;5.15;4.65;;;12.50;99.90;;;;;;5113757;28;20047;-80
2023/08/31 06:36:31;;;;;;;5.60;4.65;;;12.60;99.90;;;;;;5113227;28;20079;-82
2023/08/31 06:38:57;;;;;;;6.53;4.57;;;12.70;99.90;;;;;;5114060;28;20040;-79
2023/08/31 06:41:22;;;;;;;5.40;4.38;;;12.90;99.90;;;;;;5113701;28;20051;-79
2023/08/31 06:43:48;;;;;;;4.25;3.65;;;13.00;99.90;;;;;;5113124;28;20122;-79
2023/08/31 06:46:14;;;;;;;4.60;3.67;;;13.20;99.90;;;;;;5113948;28;20046;-80
2023/08/31 06:48:39;;;;;;;7.10;3.80;;;13.40;99.90;;;;;;5113682;28;20476;-83
2023/08/31 06:51:05;;;;;;;6.68;3.42;;;13.50;99.90;;;;;;5113456;28;20039;-79
2023/08/31 06:53:34;;;;;;;4.20;3.22;;;13.70;99.90;;;;;;5113446;28;20040;-81
2023/08/31 06:55:59;;;;;;;4.95;3.28;;;13.70;99.90;;;;;;5113453;28;20089;-83
2023/08/31 06:58:25;;;;;;;5.63;2.70;;;13.80;99.90;;;;;;5114779;28;20040;-80
2023/08/31 07:00:51;;;;;;;3.67;2.78;;;13.90;99.90;;;;;;5116645;28;20046;-80
2023/08/31 07:03:16;;;;;;;4.47;3.13;;;13.90;99.90;;;;;;5116590;27;20581;-81
2023/08/31 07:05:43;;;;;;;6.82;3.28;;;14.00;99.90;;;;;;5115682;28;20044;-80
2023/08/31 07:08:09;;;;;;;6.18;2.60;;;14.10;99.90;;;;;;5112947;28;20093;-81
2023/08/31 07:10:38;;;;;;;2.60;2.22;;;14.20;99.90;;;;;;5114180;28;20043;-82
2023/08/31 07:13:04;;;;;;;4.38;2.65;;;14.40;99.90;;;;;;5113466;28;20106;-81
2023/08/31 07:15:30;;;;;;;4.38;2.33;;;14.50;99.90;;;;;;5113173;28;20057;-81
2023/08/31 07:17:56;;;;;;;3.72;1.60;;;15.20;99.90;;;;;;5113128;28;20123;-81
2023/08/31 07:20:21;;;;;;;2.92;1.95;;;16.30;99.90;;;;;;5113340;28;20089;-82
2023/08/31 07:22:48;;;;;;;3.60;1.58;;;17.70;99.90;;;;;;5112163;28;20463;-82
2023/08/31 07:25:14;;;;;;;1.98;1.50;;;18.70;99.90;;;;;;5113108;28;20086;-81
2023/08/31 07:27:40;;;;;;;3.35;1.30;;;19.60;99.90;;;;;;5130649;27;20062;-81
2023/08/31 07:30:06;;;;;;;2.08;1.20;;;20.40;99.90;;;;;;5133678;27;20051;-82
2023/08/31 07:32:32;;;;;;;3.90;1.38;;;20.80;99.90;;;;;;5115417;28;20484;-82
2023/08/31 07:34:58;;;;;;;3.47;1.20;;;21.30;99.90;;;;;;5133421;28;20047;-82
2023/08/31 07:37:23;;;;;;;2.42;1.30;;;21.90;99.90;;;;;;5133449;28;20043;-82
2023/08/31 07:39:49;;;;;;;2.40;1.05;;;22.30;99.90;;;;;;5134108;28;20047;-83
2023/08/31 07:42:15;;;;;;;1.40;1.00;;;22.90;99.90;;;;;;5133530;28;20039;-82
2023/08/31 07:44:41;;;;;;;2.28;1.30;;;23.30;99.90;;;;;;5133727;28;20122;-82
2023/08/31 07:47:07;;;;;;;2.35;1.13;;;23.80;99.90;;;;;;5133550;27;20050;-82
2023/08/31 07:49:33;;;;;;;2.03;1.20;;;23.70;99.90;;;;;;5137627;27;20124;-82
2023/08/31 07:51:59;;;;;;;2.72;1.00;;;24.10;99.90;;;;;;5137838;27;20078;-82
2023/08/31 07:54:25;;;;;;;1.48;0.75;;;24.50;99.90;;;;;;5119417;27;20055;-83
2023/08/31 07:56:51;;;;;;;1.42;0.82;;;25.00;99.90;;;;;;5119355;27;20494;-82
2023/08/31 07:59:18;;;;;;;2.80;0.98;;;25.30;99.90;;;;;;5138250;27;20043;-82
2023/08/31 08:01:44;;;;;;;2.60;0.70;;;25.70;99.90;;;;;;5137452;27;20111;-83
2023/08/31 08:04:11;;;;;;;4.53;1.52;;;26.20;99.00;;;;;;5137408;27;20057;-82
2023/08/31 08:06:37;;;;;;;1.98;0.73;;;25.70;96.50;;;;;;5137759;27;20123;-82
2023/08/31 08:09:04;;;;;;;2.90;1.00;;;25.70;99.90;;;;;;5137229;27;20047;-83
2023/08/31 08:11:30;;;;;;;1.60;1.00;;;25.90;99.60;;;;;;5137132;27;20179;-82
2023/08/31 08:13:56;;;;;;;2.35;0.55;;;25.80;99.40;;;;;;5137257;27;20043;-83
2023/08/31 08:16:22;;;;;;;2.58;1.05;;;25.50;97.70;;;;;;5137608;27;20050;-83
2023/08/31 08:18:50;;;;;;;2.55;1.00;;;25.30;99.20;;;;;;5137118;27;20126;-84
2023/08/31 08:21:16;;;;;;;1.85;1.13;;;25.20;96.50;;;;;;5137234;27;20543;-84
2023/08/31 08:23:41;;;;;;;0.80;0.80;;;25.60;98.60;;;;;;5136944;27;20077;-82
2023/08/31 08:26:07;;;;;;;1.38;0.80;;;25.60;98.50;;;;;;5137032;27;20142;-83
2023/08/31 08:28:33;;;;;;;1.30;0.60;;;25.70;96.20;;;;;;5137228;27;20047;-84
2023/08/31 08:31:03;;;;;;;2.47;0.90;;;25.60;97.40;;;;;;5137176;27;20039;-85
2023/08/31 08:33:29;;;;;;;2.70;0.98;;;25.70;97.10;;;;;;5137108;27;20047;-83
2023/08/31 08:35:58;;;;;;;1.77;0.70;;;26.00;96.70;;;;;;5137165;27;20058;-83
2023/08/31 08:38:25;;;;;;;0.90;0.80;;;25.50;93.70;;;;;;5136595;27;20428;-83
2023/08/31 08:40:51;;;;;;;4.15;1.02;;;25.20;97.20;;;;;;5136586;27;20055;-82
2023/08/31 08:43:26;;;;;;;4.43;1.00;;;25.00;97.20;;;;;;5136648;27;20046;-82
2023/08/31 08:45:54;;;;;;;2.03;0.90;;;25.20;97.00;;;;;;5119069;27;20496;-82
2023/08/31 08:48:21;;;;;;;2.00;1.10;;;25.10;97.00;;;;;;5136528;27;20039;-82
2023/08/31 08:50:48;;;;;;;3.60;0.88;;;24.60;96.70;;;;;;5136341;27;20122;-82
2023/08/31 08:53:15;;;;;;;2.53;0.93;;;24.50;97.00;;;;;;5135994;27;20403;-82
2023/08/31 08:55:43;;;;;;;2.92;0.90;;;24.10;97.30;;;;;;5136895;27;20099;-83
2023/08/31 08:58:09;;;;;;;2.17;1.00;;;24.30;95.60;;;;;;5117842;27;20054;-83
2023/08/31 09:00:36;;;;;;;1.15;0.77;;;24.20;97.00;;;;;;5135746;27;20104;-83
2023/08/31 09:03:04;;;;;;;1.15;0.70;;;23.90;96.00;;;;;;5136801;27;20062;-83
2023/08/31 09:05:33;;;;;;;1.52;0.73;;;24.50;97.00;;;;;;5135494;27;20055;-84
2023/08/31 09:08:09;;;;;;;2.33;0.90;;;23.90;95.70;;;;;;5136113;27;20047;-83
2023/08/31 09:10:44;;;;;;;2.05;1.05;;;23.60;97.20;;;;;;5136110;27;20050;-82
2023/08/31 09:13:17;;;;;;;0.93;0.70;;;23.30;97.10;;;;;;5136121;27;20054;-82
2023/08/31 09:15:44;;;;;;;1.08;0.80;;;23.50;97.60;;;;;;5118564;27;20047;-82
2023/08/31 09:18:27;;;;;;;1.27;0.70;;;24.00;97.10;;;;;;5136000;27;20122;-79
2023/08/31 09:20:54;;;;;;;1.58;1.02;;;24.30;94.20;;;;;;5135614;27;20047;-82
2023/08/31 09:23:20;;;;;;;1.50;1.02;;;25.00;96.40;;;;;;5135826;27;20072;-83
2023/08/31 09:25:50;;;;;;;0.82;0.40;;;25.10;95.50;;;;;;5135759;27;20114;-82
2023/08/31 09:28:18;;;;;;;2.00;0.57;;;24.40;92.60;;;;;;5136117;27;20063;-82
2023/08/31 09:30:47;;;;;;;6.13;1.27;;;22.60;94.70;;;;;;5135880;27;20506;-81
2023/08/31 09:33:17;;;;;;;5.88;1.52;;;20.80;96.70;;;;;;5135955;27;20092;-83
2023/08/31 09:35:56;;;;;;;5.20;1.40;;;19.50;99.90;;;;;;5135468;27;20507;-83
2023/08/31 09:38:22;;;;;;;15.77;5.65;;;18.80;99.90;;;;;;5136265;27;20039;-83
2023/08/31 09:40:48;;;;;;;2.08;1.15;;;18.40;99.90;;;;;;5135744;27;20483;-84
2023/08/31 09:43:23;;;;;;;0.70;0.70;;;18.10;99.90;;;;;;5117517;27;20104;-84
2023/08/31 09:45:50;;;;;;;1.50;0.77;;;17.90;99.90;;;;;;5117649;27;20047;-83
2023/08/31 09:48:17;;;;;;;1.35;0.73;;;17.80;99.90;;;;;;5135386;27;20045;-84
2023/08/31 09:50:46;;;;;;;1.67;0.82;;;18.60;99.90;;;;;;5135351;27;20043;-85
2023/08/31 09:53:12;;;;;;;1.67;0.77;;;20.00;99.90;;;;;;5135980;27;20047;-84
2023/08/31 09:55:40;;;;;;;2.95;0.77;;;20.90;99.90;;;;;;5117536;27;20046;-85
2023/08/31 09:58:08;;;;;;;1.38;0.90;;;20.90;99.90;;;;;;5135885;27;20090;-85
2023/08/31 10:00:36;;;;;;;2.85;0.80;;;20.70;99.90;;;;;;5117176;27;20050;-86
2023/08/31 10:03:05;;;;;;;0.82;0.68;;;20.60;99.90;;;;;;5116965;27;20047;-84
2023/08/31 10:05:32;;;;;;;1.58;0.82;;;20.80;99.90;;;;;;5135858;27;20043;-83
2023/08/31 10:07:59;;;;;;;1.00;0.63;;;21.40;99.90;;;;;;5135088;27;20047;-84
2023/08/31 10:10:26;;;;;;;2.22;1.20;;;22.20;99.90;;;;;;5135083;27;20054;-84
2023/08/31 10:12:52;;;;;;;2.20;0.75;;;23.00;99.90;;;;;;5116918;27;20044;-83
2023/08/31 10:15:19;;;;;;;2.42;1.10;;;23.80;99.90;;;;;;5117361;27;20047;-83
2023/08/31 10:17:46;;;;;;;3.72;0.73;;;24.60;99.90;;;;;;5135358;27;20043;-84
2023/08/31 10:20:15;;;;;;;0.75;0.70;;;24.40;99.90;;;;;;5136512;27;20043;-82
2023/08/31 10:22:41;;;;;;;4.28;1.48;;;24.00;99.90;;;;;;5135904;27;20051;-85
2023/08/31 10:25:09;;;;;;;2.58;1.02;;;22.10;99.90;;;;;;5135142;27;20118;-84
2023/08/31 10:27:50;;;;;;;1.90;0.77;;;20.80;99.90;;;;;;5140517;27;20058;-85
2023/08/31 10:30:22;;;;;;;2.75;1.42;;;19.60;99.90;;;;;;5127956;27;20456;-83
2023/08/31 10:33:09;;;;;;;2.75;1.20;;;19.20;99.90;;;;;;5146993;27;20043;-83
2023/08/31 10:35:47;;;;;;;1.83;0.85;;;19.00;99.90;;;;;;5138513;27;20081;-81
2023/08/31 10:38:16;;;;;;;1.17;1.00;;;18.80;99.90;;;;;;5156616;27;20094;-84
2023/08/31 10:40:59;;;;;;;1.33;0.70;;;18.90;99.90;;;;;;5134990;27;20447;-85
2023/08/31 10:43:24;;;;;;;0.90;0.90;;;19.40;99.90;;;;;;5134864;27;20039;-85
2023/08/31 10:45:50;;;;;;;1.15;0.90;;;19.50;99.90;;;;;;5134636;27;20050;-85
2023/08/31 10:48:17;;;;;;;4.38;1.20;;;19.50;99.90;;;;;;5135168;27;20039;-85
2023/08/31 10:50:47;;;;;;;1.95;1.00;;;19.80;99.90;;;;;;5134860;27;20053;-85
2023/08/31 10:53:12;;;;;;;1.45;0.88;;;20.70;99.90;;;;;;5116600;27;20042;-85
2023/08/31 10:55:54;;;;;;;1.33;0.90;;;21.00;99.90;;;;;;5134634;27;20119;-85
2023/08/31 10:58:19;;;;;;;3.15;0.90;;;20.80;99.90;;;;;;5116792;27;20467;-83
2023/08/31 11:00:52;;;;;;;2.22;1.00;;;20.60;99.90;;;;;;5115821;27;20083;-84
2023/08/31 11:03:18;;;;;;;1.08;1.05;;;20.50;99.90;;;;;;5134195;27;20069;-84
2023/08/31 11:05:52;;;;;;;2.30;1.10;;;20.40;99.90;;;;;;5134596;27;20448;-83
2023/08/31 11:08:23;;;;;;;2.05;0.93;;;20.30;99.90;;;;;;5134465;27;20405;-84
2023/08/31 11:10:48;;;;;;;1.55;0.77;;;20.30;99.90;;;;;;5116580;27;20047;-83
2023/08/31 11:13:19;;;;;;;2.95;0.90;;;20.10;99.90;;;;;;5133961;27;20047;-83
2023/08/31 11:15:48;;;;;;;2.55;0.75;;;20.10;99.90;;;;;;5133985;27;20097;-84
2023/08/31 11:18:16;;;;;;;2.03;1.10;;;20.10;99.90;;;;;;5133836;27;20041;-83
2023/08/31 11:20:42;;;;;;;1.30;0.80;;;20.30;99.90;;;;;;5133942;27;20141;-81
2023/08/31 11:23:08;;;;;;;2.72;0.98;;;20.60;99.90;;;;;;5133598;27;20161;-82
2023/08/31 11:25:34;;;;;;;0.75;0.63;;;20.60;99.90;;;;;;5133950;27;20075;-82
2023/08/31 11:28:04;;;;;;;2.53;1.05;;;20.40;99.90;;;;;;5134186;27;20084;-81
2023/08/31 11:30:31;;;;;;;1.42;0.85;;;20.30;99.90;;;;;;5115692;28;20143;-83
2023/08/31 11:33:00;;;;;;;1.40;1.02;;;19.80;99.90;;;;;;5134279;27;20083;-82
2023/08/31 11:35:36;;;;;;;3.63;1.08;;;19.40;99.90;;;;;;5133758;28;20066;-82
2023/08/31 11:38:03;;;;;;;1.45;1.20;;;19.30;99.90;;;;;;5115826;28;20110;-81
2023/08/31 11:40:29;;;;;;;1.48;0.93;;;19.50;99.90;;;;;;5133642;28;20119;-83
2023/08/31 11:42:55;;;;;;;1.52;1.23;;;19.60;99.90;;;;;;5133918;28;20043;-82
2023/08/31 11:45:22;;;;;;;1.88;1.15;;;19.60;99.90;;;;;;5115163;28;20043;-83
2023/08/31 11:47:49;;;;;;;1.02;0.80;;;19.80;99.90;;;;;;5115299;28;20537;-82
2023/08/31 11:50:16;;;;;;;2.38;1.25;;;19.80;99.90;;;;;;5133331;28;20043;-82
2023/08/31 11:52:42;;;;;;;2.05;1.00;;;19.70;99.90;;;;;;5133558;28;20051;-81
2023/08/31 11:55:17;;;;;;;2.58;1.27;;;19.50;99.90;;;;;;5133428;28;20039;-82
2023/08/31 11:57:54;;;;;;;2.58;0.90;;;19.40;99.90;;;;;;5133386;28;20114;-82
2023/08/31 12:00:21;;;;;;;2.03;0.88;;;19.50;99.90;;;;;;5133797;28;20306;-81
2023/08/31 12:02:56;;;;;;;1.08;0.98;;;19.80;99.90;;;;;;5133455;28;20123;-81
2023/08/31 12:05:22;;;;;;;1.60;1.00;;;19.90;99.90;;;;;;5115180;28;20043;-81
2023/08/31 12:07:48;;;;;;;1.75;1.10;;;20.10;99.90;;;;;;5133293;28;20032;-82
2023/08/31 12:10:14;;;;;;;1.38;1.10;;;20.10;99.90;;;;;;5133311;28;20043;-81
2023/08/31 12:12:40;;;;;;;2.45;0.98;;;20.40;99.90;;;;;;5114906;28;20051;-81
2023/08/31 12:15:06;;;;;;;1.27;0.90;;;20.60;99.90;;;;;;5133596;28;20039;-82
2023/08/31 12:17:36;;;;;;;2.22;0.90;;;20.70;99.90;;;;;;5114900;28;20046;-82
2023/08/31 12:20:06;;;;;;;1.63;1.00;;;20.90;99.90;;;;;;5133159;28;20094;-82
2023/08/31 12:22:32;;;;;;;1.38;0.75;;;21.10;99.90;;;;;;5133148;28;20081;-82
2023/08/31 12:24:57;;;;;;;0.85;0.82;;;21.40;99.90;;;;;;5133029;28;20039;-82
2023/08/31 12:27:23;;;;;;;1.45;1.00;;;21.40;99.90;;;;;;5132606;28;20129;-83
2023/08/31 12:29:50;;;;;;;1.50;0.85;;;21.20;99.90;;;;;;5133036;28;20548;-83
2023/08/31 12:32:18;;;;;;;2.97;1.13;;;20.80;99.90;;;;;;5133802;28;20090;-82
2023/08/31 12:34:43;;;;;;;1.58;0.90;;;20.20;99.90;;;;;;5134731;27;20043;-82
2023/08/31 12:37:09;;;;;;;1.38;0.80;;;20.00;99.90;;;;;;5101611;27;20494;-81
2023/08/31 12:39:35;;;;;;;1.92;1.10;;;19.70;99.90;;;;;;5101631;27;20050;-81
2023/08/31 12:42:00;;;;;;;1.52;0.80;;;19.60;99.90;;;;;;5137310;27;20443;-81
2023/08/31 12:44:26;;;;;;;1.15;0.77;;;19.50;99.90;;;;;;5137295;27;20462;-81
2023/08/31 12:46:52;;;;;;;0.73;0.73;;;19.50;99.90;;;;;;5118438;27;20419;-82